Time;durP1;ratioP1;P1;durP2;ratioP2;P2;SDS_P1;SDS_P2;PMS_P1;PMS_P2;Temp;Humidity;BMP_temperature;BMP_pressure;BME280_temperature;BME280_humidity;BME280_pressure;Samples;Min_cycle;Max_cycle;Signal;HPM_P1;HPM_P2
2021/08/29 00:01:42;;;;;;;4.43;2.72;;;;;;;;;;5034231;28;20187;-79
2021/08/29 00:04:10;;;;;;;4.68;2.90;;;;;;;;;;5017132;28;20106;-79
2021/08/29 00:06:37;;;;;;;6.40;2.90;;;;;;;;;;5014267;28;20128;-79
2021/08/29 00:09:05;;;;;;;5.40;2.72;;;;;;;;;;5036626;28;20140;-79
2021/08/29 00:11:34;;;;;;;6.00;2.90;;;;;;;;;;5016900;28;20068;-79
2021/08/29 00:14:01;;;;;;;7.00;2.88;;;;;;;;;;5034037;28;20053;-79
2021/08/29 00:16:29;;;;;;;5.57;3.28;;;;;;;;;;5034962;28;20909;-79
2021/08/29 00:18:56;;;;;;;4.90;2.95;;;;;;;;;;5018057;28;20557;-79
2021/08/29 00:21:23;;;;;;;5.22;3.08;;;;;;;;;;5035605;28;20820;-79
2021/08/29 00:23:51;;;;;;;4.78;2.85;;;;;;;;;;5041021;28;20064;-79
2021/08/29 00:26:18;;;;;;;5.55;3.28;;;;;;;;;;5033359;28;20045;-79
2021/08/29 00:28:45;;;;;;;6.53;3.47;;;;;;;;;;5012863;28;20045;-79
2021/08/29 00:31:12;;;;;;;5.45;3.05;;;;;;;;;;5032565;28;20076;-79
2021/08/29 00:33:40;;;;;;;5.43;2.90;;;;;;;;;;5019380;28;20049;-79
2021/08/29 00:36:07;;;;;;;10.13;3.13;;;;;;;;;;5036417;28;20151;-78
2021/08/29 00:38:34;;;;;;;5.15;2.70;;;;;;;;;;5034122;28;20092;-79
2021/08/29 00:41:01;;;;;;;8.32;2.85;;;;;;;;;;5017677;28;20052;-79
2021/08/29 00:43:28;;;;;;;6.40;2.80;;;;;;;;;;5037043;28;20187;-79
2021/08/29 00:45:56;;;;;;;7.72;3.42;;;;;;;;;;5018632;28;20116;-79
2021/08/29 00:48:24;;;;;;;14.85;3.35;;;;;;;;;;5035372;28;20046;-79
2021/08/29 00:50:51;;;;;;;8.05;2.97;;;;;;;;;;5035624;28;20069;-79
2021/08/29 00:53:18;;;;;;;8.90;3.25;;;;;;;;;;5036960;28;20098;-79
2021/08/29 00:55:46;;;;;;;9.88;3.65;;;;;;;;;;5035880;28;20172;-80
2021/08/29 00:58:14;;;;;;;7.60;3.83;;;;;;;;;;5037374;28;20061;-79
2021/08/29 01:00:44;;;;;;;8.73;3.55;;;;;;;;;;5021604;28;20052;-79
2021/08/29 01:03:25;;;;;;;6.65;3.50;;;;;;;;;;5013131;28;20076;-79
2021/08/29 01:06:25;;;;;;;5.75;3.65;;;;;;;;;;5019648;28;20049;-79
2021/08/29 01:08:56;;;;;;;8.18;3.53;;;;;;;;;;4990499;28;20712;-79
2021/08/29 01:11:24;;;;;;;6.75;3.45;;;;;;;;;;5012699;28;20069;-79
2021/08/29 01:13:56;;;;;;;5.95;3.22;;;;;;;;;;5039779;28;20053;-79
2021/08/29 01:16:23;;;;;;;7.53;3.20;;;;;;;;;;5035359;28;20208;-79
2021/08/29 01:18:52;;;;;;;8.52;3.33;;;;;;;;;;5031180;28;20083;-79
2021/08/29 01:21:21;;;;;;;14.55;4.40;;;;;;;;;;5033258;28;20199;-79
2021/08/29 01:23:51;;;;;;;6.30;4.28;;;;;;;;;;5018118;28;20135;-79
2021/08/29 01:26:21;;;;;;;9.48;3.97;;;;;;;;;;5034908;28;20126;-79
2021/08/29 01:29:00;;;;;;;11.25;4.40;;;;;;;;;;5018821;28;20071;-79
2021/08/29 01:31:29;;;;;;;10.85;4.18;;;;;;;;;;5032687;28;20102;-79
2021/08/29 01:34:05;;;;;;;10.95;5.85;;;;;;;;;;5029649;28;20053;-79
2021/08/29 01:36:32;;;;;;;12.40;5.13;;;;;;;;;;5014372;28;20526;-79
2021/08/29 01:39:01;;;;;;;9.73;5.05;;;;;;;;;;5035902;28;20122;-80
2021/08/29 01:41:29;;;;;;;8.45;4.80;;;;;;;;;;5016034;28;20053;-79
2021/08/29 01:43:56;;;;;;;11.48;5.30;;;;;;;;;;5034445;28;20131;-78
2021/08/29 01:46:24;;;;;;;10.75;4.72;;;;;;;;;;5018025;28;20129;-79
2021/08/29 01:48:51;;;;;;;14.30;5.10;;;;;;;;;;5018143;28;20199;-79
2021/08/29 01:51:19;;;;;;;13.85;5.07;;;;;;;;;;5035867;28;20135;-79
2021/08/29 01:53:46;;;;;;;8.85;4.43;;;;;;;;;;5039133;28;20152;-80
2021/08/29 01:56:13;;;;;;;8.35;4.75;;;;;;;;;;5017808;28;20056;-79
2021/08/29 01:58:40;;;;;;;8.70;4.35;;;;;;;;;;5020167;28;20805;-79
2021/08/29 02:01:11;;;;;;;8.20;4.25;;;;;;;;;;5037217;28;20152;-79
2021/08/29 02:03:43;;;;;;;12.55;4.55;;;;;;;;;;5031544;28;20060;-79
2021/08/29 02:06:10;;;;;;;10.13;4.70;;;;;;;;;;5033977;28;20053;-79
2021/08/29 02:08:39;;;;;;;11.18;4.80;;;;;;;;;;5019398;28;20057;-80
2021/08/29 02:11:08;;;;;;;14.68;4.38;;;;;;;;;;5035667;28;20714;-80
2021/08/29 02:13:40;;;;;;;13.13;3.97;;;;;;;;;;5012658;28;20041;-79
2021/08/29 02:16:14;;;;;;;12.35;4.15;;;;;;;;;;5032903;28;20123;-79
2021/08/29 02:18:42;;;;;;;9.50;3.90;;;;;;;;;;5035765;28;20053;-79
2021/08/29 02:21:11;;;;;;;9.73;4.13;;;;;;;;;;5037994;28;20065;-79
2021/08/29 02:23:38;;;;;;;11.45;4.53;;;;;;;;;;5044736;28;20772;-79
2021/08/29 02:26:06;;;;;;;10.75;4.45;;;;;;;;;;5039028;28;20049;-79
2021/08/29 02:28:34;;;;;;;10.82;4.05;;;;;;;;;;5041625;28;20085;-79
2021/08/29 02:31:02;;;;;;;10.65;4.22;;;;;;;;;;5026060;28;20124;-79
2021/08/29 02:33:29;;;;;;;10.70;3.83;;;;;;;;;;5021864;28;20382;-79
2021/08/29 02:35:58;;;;;;;10.18;4.40;;;;;;;;;;5038094;28;20132;-79
2021/08/29 02:38:27;;;;;;;14.23;4.13;;;;;;;;;;5018244;28;20144;-79
2021/08/29 02:40:55;;;;;;;10.85;4.55;;;;;;;;;;5039478;28;20099;-79
2021/08/29 02:43:24;;;;;;;6.75;3.97;;;;;;;;;;5039109;28;20041;-79
2021/08/29 02:45:51;;;;;;;10.05;3.85;;;;;;;;;;5041446;28;20052;-79
2021/08/29 02:48:24;;;;;;;11.00;3.80;;;;;;;;;;5043299;28;20489;-78
2021/08/29 02:50:52;;;;;;;14.90;4.20;;;;;;;;;;5039081;28;20057;-79
2021/08/29 02:53:19;;;;;;;8.20;4.10;;;;;;;;;;5039000;28;20128;-79
2021/08/29 02:55:47;;;;;;;10.00;3.97;;;;;;;;;;5035316;28;20171;-79
2021/08/29 02:58:14;;;;;;;6.93;3.72;;;;;;;;;;5016896;28;20088;-79
2021/08/29 03:00:42;;;;;;;8.27;4.28;;;;;;;;;;5040701;28;20048;-79
2021/08/29 03:03:09;;;;;;;12.98;4.40;;;;;;;;;;5038440;28;20072;-78
2021/08/29 03:05:37;;;;;;;11.10;4.28;;;;;;;;;;5025392;28;20057;-79
2021/08/29 03:08:05;;;;;;;9.45;4.32;;;;;;;;;;5041919;28;20080;-79
2021/08/29 03:10:32;;;;;;;10.00;4.43;;;;;;;;;;5025142;28;20098;-78
2021/08/29 03:13:04;;;;;;;7.72;4.03;;;;;;;;;;5043552;28;20085;-79
2021/08/29 03:15:32;;;;;;;7.13;4.43;;;;;;;;;;5035469;28;20107;-79
2021/08/29 03:17:59;;;;;;;10.88;4.60;;;;;;;;;;5039605;28;20045;-78
2021/08/29 03:20:27;;;;;;;12.35;3.90;;;;;;;;;;5038947;28;20084;-78
2021/08/29 03:22:55;;;;;;;7.60;4.10;;;;;;;;;;5019872;28;20131;-79
2021/08/29 03:25:22;;;;;;;8.68;4.38;;;;;;;;;;5038382;28;20549;-78
2021/08/29 03:27:49;;;;;;;45.03;4.93;;;;;;;;;;5018885;28;20041;-78
2021/08/29 03:30:17;;;;;;;8.82;4.43;;;;;;;;;;5043991;28;20161;-78
2021/08/29 03:32:44;;;;;;;11.25;4.38;;;;;;;;;;5021424;28;20118;-79
2021/08/29 03:35:12;;;;;;;7.03;3.97;;;;;;;;;;5021476;28;20045;-79
2021/08/29 03:37:41;;;;;;;9.95;3.88;;;;;;;;;;5017746;28;20037;-78
2021/08/29 03:40:08;;;;;;;6.70;3.95;;;;;;;;;;5033030;28;20152;-78
2021/08/29 03:42:36;;;;;;;9.32;4.15;;;;;;;;;;5014620;28;20160;-78
2021/08/29 03:45:07;;;;;;;11.05;4.45;;;;;;;;;;5030860;28;20112;-78
2021/08/29 03:47:36;;;;;;;6.65;3.72;;;;;;;;;;5020832;28;20049;-78
2021/08/29 03:50:04;;;;;;;6.30;3.72;;;;;;;;;;5039394;28;20128;-78
2021/08/29 03:52:33;;;;;;;8.07;4.03;;;;;;;;;;5014116;28;20124;-78
2021/08/29 03:55:00;;;;;;;7.88;4.35;;;;;;;;;;5030772;28;20141;-78
2021/08/29 03:57:28;;;;;;;7.85;4.05;;;;;;;;;;5040866;28;20060;-78
2021/08/29 03:59:57;;;;;;;7.03;4.00;;;;;;;;;;5012460;28;20156;-78
2021/08/29 04:02:24;;;;;;;8.00;4.00;;;;;;;;;;5031783;28;20140;-78
2021/08/29 04:04:52;;;;;;;7.70;4.28;;;;;;;;;;5035681;28;20068;-78
2021/08/29 04:07:19;;;;;;;10.40;4.68;;;;;;;;;;5018226;28;20085;-78
2021/08/29 04:09:48;;;;;;;11.40;4.30;;;;;;;;;;5033792;28;20115;-78
2021/08/29 04:12:17;;;;;;;10.82;4.97;;;;;;;;;;5033775;28;20433;-78
2021/08/29 04:14:46;;;;;;;7.43;4.20;;;;;;;;;;5037466;28;20128;-78
2021/08/29 04:17:14;;;;;;;6.38;4.10;;;;;;;;;;5038554;28;20160;-78
2021/08/29 04:19:42;;;;;;;8.15;4.60;;;;;;;;;;5039205;28;20057;-78
2021/08/29 04:22:10;;;;;;;7.30;4.40;;;;;;;;;;5013911;28;20060;-78
2021/08/29 04:24:37;;;;;;;10.00;5.07;;;;;;;;;;5030756;28;20084;-78
2021/08/29 04:27:05;;;;;;;8.82;4.25;;;;;;;;;;5038174;28;20121;-78
2021/08/29 04:29:32;;;;;;;11.60;5.28;;;;;;;;;;5011682;28;20049;-78
2021/08/29 04:32:00;;;;;;;8.73;5.07;;;;;;;;;;5029387;28;20045;-78
2021/08/29 04:34:27;;;;;;;8.35;4.57;;;;;;;;;;5034572;28;20139;-78
2021/08/29 04:36:54;;;;;;;18.80;5.68;;;;;;;;;;5030203;28;20512;-78
2021/08/29 04:39:21;;;;;;;14.68;5.45;;;;;;;;;;5038668;28;20132;-78
2021/08/29 04:41:48;;;;;;;12.77;4.88;;;;;;;;;;5036020;28;20160;-78
2021/08/29 04:44:15;;;;;;;9.30;4.72;;;;;;;;;;5012121;28;20076;-78
2021/08/29 04:46:43;;;;;;;15.63;5.10;;;;;;;;;;5032719;28;20085;-79
2021/08/29 04:49:10;;;;;;;13.02;5.15;;;;;;;;;;5029713;28;20081;-78
2021/08/29 04:51:37;;;;;;;15.40;6.30;;;;;;;;;;5035918;28;20128;-78
2021/08/29 04:54:04;;;;;;;13.75;5.88;;;;;;;;;;5032120;28;20163;-78
2021/08/29 04:56:32;;;;;;;15.73;5.00;;;;;;;;;;5036364;28;20046;-78
2021/08/29 04:58:59;;;;;;;12.23;5.30;;;;;;;;;;5031446;28;20127;-78
2021/08/29 05:01:31;;;;;;;13.20;5.55;;;;;;;;;;5037446;28;20191;-79
2021/08/29 05:03:59;;;;;;;9.18;5.05;;;;;;;;;;5013062;28;20779;-78
2021/08/29 05:06:27;;;;;;;10.18;5.50;;;;;;;;;;5031164;28;20068;-78
2021/08/29 05:08:55;;;;;;;9.35;5.28;;;;;;;;;;5016887;28;20141;-78
2021/08/29 05:11:22;;;;;;;9.85;5.40;;;;;;;;;;5035878;28;20124;-78
2021/08/29 05:13:49;;;;;;;10.75;5.18;;;;;;;;;;5015940;28;20076;-77
2021/08/29 05:16:16;;;;;;;16.60;5.82;;;;;;;;;;5031123;28;20128;-78
2021/08/29 05:18:44;;;;;;;8.60;5.18;;;;;;;;;;5014125;28;20549;-78
2021/08/29 05:21:11;;;;;;;13.25;5.50;;;;;;;;;;5018122;28;20059;-78
2021/08/29 05:23:39;;;;;;;11.38;4.72;;;;;;;;;;5031020;28;20060;-78
2021/08/29 05:26:06;;;;;;;8.35;4.57;;;;;;;;;;5031802;28;20136;-78
2021/08/29 05:28:33;;;;;;;8.20;4.90;;;;;;;;;;5011828;28;20057;-78
2021/08/29 05:31:00;;;;;;;10.10;4.20;;;;;;;;;;5013676;28;20159;-77
2021/08/29 05:33:27;;;;;;;7.15;4.38;;;;;;;;;;5012186;28;20183;-78
2021/08/29 05:35:54;;;;;;;6.55;4.38;;;;;;;;;;5032385;28;20132;-78
2021/08/29 05:38:21;;;;;;;6.50;3.70;;;;;;;;;;5027514;28;20130;-78
2021/08/29 05:40:49;;;;;;;8.02;3.55;;;;;;;;;;5037607;28;20055;-77
2021/08/29 05:43:16;;;;;;;6.53;3.42;;;;;;;;;;5032013;28;20679;-78
2021/08/29 05:45:43;;;;;;;8.32;3.75;;;;;;;;;;5029887;28;20894;-78
2021/08/29 05:48:11;;;;;;;8.13;3.95;;;;;;;;;;5032410;28;20123;-78
2021/08/29 05:50:38;;;;;;;8.10;4.40;;;;;;;;;;5031748;28;20057;-77
2021/08/29 05:53:05;;;;;;;7.13;4.15;;;;;;;;;;5035763;28;20144;-78
2021/08/29 05:55:33;;;;;;;6.97;4.18;;;;;;;;;;5012900;28;20048;-78
2021/08/29 05:58:00;;;;;;;13.20;4.88;;;;;;;;;;5028240;28;20080;-78
2021/08/29 06:00:27;;;;;;;9.75;4.70;;;;;;;;;;5034711;28;20136;-77
2021/08/29 06:02:54;;;;;;;7.55;4.60;;;;;;;;;;5031330;28;20044;-77
2021/08/29 06:05:22;;;;;;;7.63;4.85;;;;;;;;;;5012584;28;20069;-77
2021/08/29 06:07:49;;;;;;;8.90;4.93;;;;;;;;;;5015066;28;20490;-78
2021/08/29 06:10:17;;;;;;;8.45;4.78;;;;;;;;;;5029813;28;20145;-78
2021/08/29 06:12:45;;;;;;;8.70;5.13;;;;;;;;;;5016863;28;20110;-78
2021/08/29 06:15:12;;;;;;;8.23;4.43;;;;;;;;;;5011178;28;20585;-78
2021/08/29 06:17:40;;;;;;;8.32;4.25;;;;;;;;;;5030996;28;20091;-77
2021/08/29 06:20:08;;;;;;;5.40;3.80;;;;;;;;;;5030760;28;20447;-78
2021/08/29 06:22:35;;;;;;;7.00;3.65;;;;;;;;;;5029112;28;20109;-78
2021/08/29 06:25:02;;;;;;;6.93;3.45;;;;;;;;;;5030476;28;20150;-77
2021/08/29 06:27:29;;;;;;;7.90;3.53;;;;;;;;;;5030729;28;20647;-77
2021/08/29 06:29:56;;;;;;;9.30;3.58;;;;;;;;;;5028347;28;20133;-77
2021/08/29 06:32:23;;;;;;;7.43;4.35;;;;;;;;;;5026889;28;20795;-78
2021/08/29 06:34:52;;;;;;;9.38;3.60;;;;;;;;;;5011773;28;20643;-77
2021/08/29 06:37:19;;;;;;;6.00;3.83;;;;;;;;;;5030606;28;20167;-78
2021/08/29 06:39:46;;;;;;;8.60;3.92;;;;;;;;;;5028573;28;20136;-78
2021/08/29 06:42:13;;;;;;;10.65;4.03;;;;;;;;;;5029064;28;20135;-78
2021/08/29 06:44:40;;;;;;;6.60;4.00;;;;;;;;;;5014204;28;20663;-77
2021/08/29 06:47:07;;;;;;;9.10;5.20;;;;;;;;;;5029296;28;20048;-78
2021/08/29 06:49:36;;;;;;;9.25;5.00;;;;;;;;;;5031588;28;20160;-78
2021/08/29 06:52:03;;;;;;;10.90;5.40;;;;;;;;;;5013501;28;20068;-78
2021/08/29 06:54:30;;;;;;;9.80;5.78;;;;;;;;;;5012606;28;20135;-78
2021/08/29 06:56:57;;;;;;;13.85;6.00;;;;;;;;;;5012754;28;20077;-78
2021/08/29 06:59:24;;;;;;;8.70;6.03;;;;;;;;;;5026624;28;20148;-77
2021/08/29 07:01:51;;;;;;;9.82;5.43;;;;;;;;;;5008052;28;20063;-78
2021/08/29 07:04:19;;;;;;;8.30;5.15;;;;;;;;;;5012434;28;20499;-78
2021/08/29 07:06:46;;;;;;;9.38;5.22;;;;;;;;;;5029598;28;20073;-78
2021/08/29 07:09:14;;;;;;;9.57;5.15;;;;;;;;;;5032745;28;20137;-78
2021/08/29 07:11:41;;;;;;;9.10;4.93;;;;;;;;;;5037924;28;20073;-78
2021/08/29 07:14:08;;;;;;;8.27;4.30;;;;;;;;;;5015353;28;20556;-78
2021/08/29 07:16:35;;;;;;;6.43;4.15;;;;;;;;;;5039572;28;20124;-78
2021/08/29 07:19:02;;;;;;;13.38;4.68;;;;;;;;;;5035285;28;20128;-78
2021/08/29 07:21:29;;;;;;;9.63;4.38;;;;;;;;;;5016035;28;20063;-78
2021/08/29 07:23:58;;;;;;;9.70;4.30;;;;;;;;;;5017188;28;20823;-78
2021/08/29 07:26:25;;;;;;;5.20;3.78;;;;;;;;;;5013328;28;20141;-78
2021/08/29 07:28:52;;;;;;;10.88;5.28;;;;;;;;;;5038676;28;20104;-78
2021/08/29 07:31:19;;;;;;;8.82;5.65;;;;;;;;;;5017603;28;20137;-78
2021/08/29 07:33:46;;;;;;;15.20;4.68;;;;;;;;;;5037887;28;20425;-78
2021/08/29 07:36:14;;;;;;;8.93;4.70;;;;;;;;;;5032841;28;20140;-78
2021/08/29 07:38:41;;;;;;;10.38;4.60;;;;;;;;;;5032942;28;20056;-78
2021/08/29 07:41:08;;;;;;;9.20;5.15;;;;;;;;;;5037957;28;20801;-78
2021/08/29 07:43:35;;;;;;;11.38;5.43;;;;;;;;;;5035373;28;20505;-78
2021/08/29 07:46:03;;;;;;;9.43;4.90;;;;;;;;;;5018163;28;20405;-78
2021/08/29 07:48:30;;;;;;;11.38;5.93;;;;;;;;;;5034476;28;20056;-78
2021/08/29 07:50:57;;;;;;;11.27;5.85;;;;;;;;;;5028273;28;21494;-78
2021/08/29 07:53:25;;;;;;;10.23;5.40;;;;;;;;;;5033853;28;20094;-78
2021/08/29 07:55:52;;;;;;;10.75;5.65;;;;;;;;;;5030547;28;20147;-78
2021/08/29 07:58:19;;;;;;;9.88;5.82;;;;;;;;;;5030653;28;20049;-78
2021/08/29 08:00:46;;;;;;;11.77;5.88;;;;;;;;;;5032597;28;20501;-78
2021/08/29 08:03:13;;;;;;;9.55;5.18;;;;;;;;;;5032963;28;23005;-78
2021/08/29 08:05:41;;;;;;;10.07;5.28;;;;;;;;;;5012279;28;20057;-78
2021/08/29 08:08:08;;;;;;;12.82;5.35;;;;;;;;;;5032478;28;20767;-78
2021/08/29 08:10:35;;;;;;;10.25;5.95;;;;;;;;;;5017313;28;20053;-78
2021/08/29 08:13:02;;;;;;;9.23;6.03;;;;;;;;;;5037552;28;20049;-78
2021/08/29 08:15:29;;;;;;;9.82;5.40;;;;;;;;;;5034212;28;20045;-81
2021/08/29 08:17:58;;;;;;;11.30;5.43;;;;;;;;;;5035781;28;20057;-81
2021/08/29 08:20:25;;;;;;;7.30;4.80;;;;;;;;;;5043600;28;20053;-81
2021/08/29 08:22:52;;;;;;;9.35;4.30;;;;;;;;;;5038404;28;20162;-80
2021/08/29 08:25:20;;;;;;;9.23;4.97;;;;;;;;;;5031672;28;20064;-81
2021/08/29 08:27:47;;;;;;;12.18;5.95;;;;;;;;;;5040184;28;20051;-83
2021/08/29 08:30:14;;;;;;;14.35;9.13;;;;;;;;;;5022436;28;20073;-85
2021/08/29 08:32:42;;;;;;;10.05;6.20;;;;;;;;;;5044700;28;20107;-86
2021/08/29 08:35:09;;;;;;;84.88;42.35;;;;;;;;;;5023161;28;20083;-85
2021/08/29 08:37:38;;;;;;;20.42;8.93;;;;;;;;;;5026175;28;20048;-85
2021/08/29 08:40:06;;;;;;;10.85;6.15;;;;;;;;;;5021117;28;20049;-85
2021/08/29 08:42:34;;;;;;;8.25;5.80;;;;;;;;;;5021782;28;20069;-87
2021/08/29 08:45:05;;;;;;;9.68;5.18;;;;;;;;;;5019041;28;20057;-85
2021/08/29 08:47:34;;;;;;;7.20;4.28;;;;;;;;;;5028341;28;20077;-88
2021/08/29 08:50:03;;;;;;;6.18;3.25;;;;;;;;;;5043747;28;20048;-83
2021/08/29 08:52:30;;;;;;;10.38;3.58;;;;;;;;;;5042847;28;20071;-83
2021/08/29 08:55:00;;;;;;;6.25;3.40;;;;;;;;;;5025785;28;20088;-85
2021/08/29 08:57:28;;;;;;;9.85;4.30;;;;;;;;;;5026306;28;20045;-84
2021/08/29 08:59:57;;;;;;;9.35;4.05;;;;;;;;;;5023372;28;20108;-81
2021/08/29 09:02:25;;;;;;;14.15;6.20;;;;;;;;;;5036058;28;20053;-82
2021/08/29 09:04:53;;;;;;;13.18;7.65;;;;;;;;;;5038598;28;20061;-82
2021/08/29 09:07:20;;;;;;;11.35;6.18;;;;;;;;;;5021089;28;20130;-90
2021/08/29 09:09:48;;;;;;;10.15;6.47;;;;;;;;;;5040668;28;20037;-83
2021/08/29 09:12:17;;;;;;;11.18;4.63;;;;;;;;;;5032374;28;20080;-87
2021/08/29 09:14:45;;;;;;;8.10;3.83;;;;;;;;;;5036869;28;20069;-85
2021/08/29 09:17:27;;;;;;;8.43;4.10;;;;;;;;;;5023955;28;20045;-85
2021/08/29 09:20:16;;;;;;;8.82;4.63;;;;;;;;;;5040657;28;20334;-87
2021/08/29 09:22:53;;;;;;;12.18;6.00;;;;;;;;;;5039016;28;20045;-88
2021/08/29 09:25:21;;;;;;;11.82;5.65;;;;;;;;;;5018741;28;20052;-85
2021/08/29 09:27:51;;;;;;;20.38;7.97;;;;;;;;;;5029701;28;20155;-84
2021/08/29 09:30:19;;;;;;;16.95;8.23;;;;;;;;;;5031003;28;20045;-83
2021/08/29 09:32:50;;;;;;;12.68;7.45;;;;;;;;;;5032248;28;20136;-83
2021/08/29 09:35:18;;;;;;;20.83;9.50;;;;;;;;;;5017139;28;20055;-84
2021/08/29 09:37:50;;;;;;;21.15;9.68;;;;;;;;;;5015873;28;20091;-86
2021/08/29 09:40:30;;;;;;;24.23;10.90;;;;;;;;;;5024999;28;20669;-86
2021/08/29 09:42:58;;;;;;;27.35;11.23;;;;;;;;;;5028740;28;20091;-86
2021/08/29 09:45:28;;;;;;;20.98;10.82;;;;;;;;;;5027011;28;20045;-84
2021/08/29 09:48:03;;;;;;;26.10;12.02;;;;;;;;;;5043320;28;20128;-84
2021/08/29 09:50:39;;;;;;;33.63;14.35;;;;;;;;;;5025625;28;20049;-85
2021/08/29 09:53:10;;;;;;;29.55;12.60;;;;;;;;;;5040979;28;20454;-86
2021/08/29 09:55:39;;;;;;;24.98;10.93;;;;;;;;;;5025650;28;20069;-88
2021/08/29 09:58:28;;;;;;;36.13;10.70;;;;;;;;;;5025381;28;20128;-86
2021/08/29 10:01:07;;;;;;;19.50;9.88;;;;;;;;;;5027990;28;20049;-85
2021/08/29 10:03:38;;;;;;;23.05;8.95;;;;;;;;;;5028758;28;20056;-89
2021/08/29 10:06:26;;;;;;;18.85;9.13;;;;;;;;;;5026611;28;20103;-84
2021/08/29 10:08:57;;;;;;;16.08;7.85;;;;;;;;;;5030955;28;20046;-84
2021/08/29 10:11:28;;;;;;;15.40;7.03;;;;;;;;;;5025091;28;20045;-84
2021/08/29 10:14:03;;;;;;;12.82;6.35;;;;;;;;;;5040534;28;20136;-84
2021/08/29 10:16:31;;;;;;;12.35;7.13;;;;;;;;;;5026571;28;20045;-85
2021/08/29 10:18:59;;;;;;;16.77;6.50;;;;;;;;;;5025922;28;20052;-86
2021/08/29 10:21:27;;;;;;;12.70;5.78;;;;;;;;;;5043620;28;20110;-86
2021/08/29 10:23:58;;;;;;;9.98;5.75;;;;;;;;;;5029536;28;20057;-85
2021/08/29 10:26:25;;;;;;;10.20;5.50;;;;;;;;;;5039497;28;21050;-85
2021/08/29 10:28:56;;;;;;;13.10;5.63;;;;;;;;;;5020778;28;20128;-86
2021/08/29 10:31:28;;;;;;;12.45;5.22;;;;;;;;;;5041317;28;20080;-85
2021/08/29 10:33:57;;;;;;;9.25;5.43;;;;;;;;;;5023303;28;20107;-86
2021/08/29 10:36:26;;;;;;;9.38;5.25;;;;;;;;;;5041762;28;20136;-85
2021/08/29 10:38:56;;;;;;;7.40;4.53;;;;;;;;;;5023062;28;20387;-85
2021/08/29 10:41:24;;;;;;;8.27;4.75;;;;;;;;;;5039211;28;20103;-86
2021/08/29 10:43:55;;;;;;;9.48;5.05;;;;;;;;;;5028514;28;20069;-87
2021/08/29 10:46:23;;;;;;;10.55;5.25;;;;;;;;;;5043677;28;20077;-85
2021/08/29 10:48:51;;;;;;;12.65;5.30;;;;;;;;;;5044165;28;20083;-85
2021/08/29 10:51:25;;;;;;;11.77;5.10;;;;;;;;;;5031524;28;20124;-85
2021/08/29 10:53:56;;;;;;;13.95;5.35;;;;;;;;;;5023560;28;20114;-79
2021/08/29 10:56:23;;;;;;;12.25;5.95;;;;;;;;;;5034473;28;20095;-79
2021/08/29 10:59:10;;;;;;;14.80;7.07;;;;;;;;;;5041315;28;20064;-85
2021/08/29 11:01:47;;;;;;;16.58;7.13;;;;;;;;;;5042500;28;20048;-83
2021/08/29 11:04:21;;;;;;;16.38;8.13;;;;;;;;;;5046986;28;21313;-85
2021/08/29 11:06:51;;;;;;;19.95;9.55;;;;;;;;;;5048374;28;20713;-83
2021/08/29 11:09:41;;;;;;;23.38;10.60;;;;;;;;;;5044891;28;20048;-83
2021/08/29 11:12:19;;;;;;;23.98;11.07;;;;;;;;;;5027628;28;20052;-81
2021/08/29 11:14:53;;;;;;;27.55;12.48;;;;;;;;;;5027483;28;20081;-83
2021/08/29 11:17:25;;;;;;;30.85;12.40;;;;;;;;;;5046984;28;20069;-84
2021/08/29 11:19:55;;;;;;;27.60;11.65;;;;;;;;;;5026256;28;20789;-83
2021/08/29 11:22:29;;;;;;;25.48;12.82;;;;;;;;;;5043355;28;20139;-85
2021/08/29 11:25:00;;;;;;;30.95;13.23;;;;;;;;;;5027405;28;20073;-83
2021/08/29 11:27:39;;;;;;;30.15;14.88;;;;;;;;;;5026451;28;20049;-84
2021/08/29 11:30:16;;;;;;;42.58;17.83;;;;;;;;;;5025845;28;20096;-84
2021/08/29 11:32:46;;;;;;;36.53;18.45;;;;;;;;;;5043537;28;20045;-84
2021/08/29 11:35:33;;;;;;;38.53;19.98;;;;;;;;;;5027968;28;20111;-81
2021/08/29 11:38:06;;;;;;;40.28;19.17;;;;;;;;;;5044731;28;20045;-83
2021/08/29 11:40:53;;;;;;;47.15;24.20;;;;;;;;;;5044559;28;20084;-83
2021/08/29 11:43:35;;;;;;;36.65;19.38;;;;;;;;;;5028492;28;20057;-82
2021/08/29 11:46:27;;;;;;;41.25;20.45;;;;;;;;;;5042812;28;20048;-82
2021/08/29 11:48:56;;;;;;;59.58;31.20;;;;;;;;;;5024033;28;20041;-83
2021/08/29 11:51:25;;;;;;;47.30;22.15;;;;;;;;;;5044567;28;20045;-82
2021/08/29 11:53:53;;;;;;;76.15;37.50;;;;;;;;;;5040030;28;20053;-82
2021/08/29 11:56:28;;;;;;;50.90;23.17;;;;;;;;;;5023923;28;20036;-82
2021/08/29 11:59:01;;;;;;;57.70;22.47;;;;;;;;;;5043965;28;20056;-84
2021/08/29 12:01:35;;;;;;;61.10;29.85;;;;;;;;;;5022788;28;20388;-83
2021/08/29 12:04:20;;;;;;;49.00;21.40;;;;;;;;;;5023159;28;20049;-86
2021/08/29 12:06:48;;;;;;;58.13;29.02;;;;;;;;;;5021553;28;20603;-85
2021/08/29 12:09:21;;;;;;;44.83;20.50;;;;;;;;;;5035466;28;20674;-85
2021/08/29 12:11:51;;;;;;;44.10;20.55;;;;;;;;;;5023375;28;20445;-87
2021/08/29 12:14:39;;;;;;;46.15;20.38;;;;;;;;;;5039416;28;20700;-84
2021/08/29 12:17:10;;;;;;;40.70;20.58;;;;;;;;;;5041184;28;20133;-86
2021/08/29 12:19:40;;;;;;;54.92;24.27;;;;;;;;;;5024715;28;20314;-84
2021/08/29 12:22:10;;;;;;;57.25;29.60;;;;;;;;;;5039720;28;20614;-85
2021/08/29 12:24:42;;;;;;;47.55;21.52;;;;;;;;;;5022807;28;20120;-84
2021/08/29 12:27:12;;;;;;;45.90;22.90;;;;;;;;;;5043957;28;20041;-84
2021/08/29 12:29:46;;;;;;;43.60;20.90;;;;;;;;;;5028505;28;20080;-83
2021/08/29 12:32:15;;;;;;;49.72;20.85;;;;;;;;;;5040439;28;20109;-84
2021/08/29 12:35:05;;;;;;;47.22;20.58;;;;;;;;;;5041750;28;20041;-83
2021/08/29 12:37:34;;;;;;;49.28;21.08;;;;;;;;;;5021277;28;20045;-83
2021/08/29 12:40:07;;;;;;;43.03;19.83;;;;;;;;;;5038584;28;20061;-79
2021/08/29 12:42:42;;;;;;;47.38;20.58;;;;;;;;;;5042127;28;20136;-80
2021/08/29 12:45:11;;;;;;;56.67;22.10;;;;;;;;;;5041976;28;20175;-79
2021/08/29 12:47:42;;;;;;;52.58;24.33;;;;;;;;;;5024587;28;20141;-79
2021/08/29 12:50:11;;;;;;;51.33;21.75;;;;;;;;;;5027038;28;20053;-78
2021/08/29 12:52:41;;;;;;;51.22;21.10;;;;;;;;;;5018142;28;20115;-79
2021/08/29 12:55:29;;;;;;;44.30;20.75;;;;;;;;;;5038615;28;20049;-78
2021/08/29 12:58:00;;;;;;;52.65;20.65;;;;;;;;;;5036577;28;20049;-78
2021/08/29 13:00:37;;;;;;;53.08;20.92;;;;;;;;;;5035793;28;20139;-77
2021/08/29 13:03:06;;;;;;;49.83;21.10;;;;;;;;;;5034347;28;20053;-77
2021/08/29 13:05:35;;;;;;;53.30;21.70;;;;;;;;;;5031348;28;20068;-75
2021/08/29 13:08:02;;;;;;;49.55;23.20;;;;;;;;;;5035283;28;20904;-76
2021/08/29 13:10:29;;;;;;;47.72;20.98;;;;;;;;;;5015146;28;20140;-78
2021/08/29 13:13:03;;;;;;;50.58;22.48;;;;;;;;;;5037113;28;20072;-77
2021/08/29 13:15:35;;;;;;;54.93;21.43;;;;;;;;;;5016917;28;20068;-78
2021/08/29 13:18:04;;;;;;;50.28;23.27;;;;;;;;;;5035434;28;20077;-79
2021/08/29 13:20:35;;;;;;;53.58;25.25;;;;;;;;;;5036901;28;20057;-80
2021/08/29 13:23:03;;;;;;;53.80;21.10;;;;;;;;;;5020970;28;20141;-79
2021/08/29 13:25:30;;;;;;;52.65;22.17;;;;;;;;;;5020830;28;20136;-81
2021/08/29 13:28:02;;;;;;;57.08;22.35;;;;;;;;;;5039019;28;20092;-82
2021/08/29 13:30:32;;;;;;;54.03;23.27;;;;;;;;;;5041397;28;20135;-81
2021/08/29 13:33:00;;;;;;;53.17;20.90;;;;;;;;;;5035178;28;20191;-78
2021/08/29 13:35:32;;;;;;;51.88;22.67;;;;;;;;;;5035246;28;20132;-79
2021/08/29 13:38:01;;;;;;;45.00;20.83;;;;;;;;;;5014197;28;20045;-78
2021/08/29 13:40:30;;;;;;;60.13;23.02;;;;;;;;;;5032137;28;20076;-78
2021/08/29 13:43:01;;;;;;;47.30;21.55;;;;;;;;;;5020254;28;20144;-79
2021/08/29 13:45:29;;;;;;;54.85;21.95;;;;;;;;;;5034980;28;20151;-78
2021/08/29 13:47:57;;;;;;;49.75;20.50;;;;;;;;;;5012562;28;20056;-78
2021/08/29 13:50:24;;;;;;;42.15;19.92;;;;;;;;;;5035954;28;20134;-79
2021/08/29 13:53:01;;;;;;;46.13;20.42;;;;;;;;;;5018153;28;20140;-79
2021/08/29 13:55:28;;;;;;;48.92;21.83;;;;;;;;;;5014614;28;20167;-79
2021/08/29 13:57:55;;;;;;;44.10;21.05;;;;;;;;;;5014575;28;20588;-79
2021/08/29 14:00:22;;;;;;;41.60;19.88;;;;;;;;;;5039653;28;20077;-79
2021/08/29 14:02:50;;;;;;;46.65;20.77;;;;;;;;;;5034876;28;20049;-81
2021/08/29 14:05:17;;;;;;;49.03;22.63;;;;;;;;;;5022501;28;20167;-81
2021/08/29 14:07:45;;;;;;;44.08;19.95;;;;;;;;;;5041959;28;20053;-83
2021/08/29 14:10:13;;;;;;;48.78;21.58;;;;;;;;;;5037206;28;20139;-82
2021/08/29 14:12:41;;;;;;;47.25;21.73;;;;;;;;;;5040911;28;20125;-82
2021/08/29 14:15:13;;;;;;;44.33;22.40;;;;;;;;;;5040333;28;20060;-82
2021/08/29 14:17:42;;;;;;;44.97;21.23;;;;;;;;;;5038788;28;20812;-82
2021/08/29 14:20:09;;;;;;;47.45;21.80;;;;;;;;;;5022250;28;20053;-82
2021/08/29 14:22:43;;;;;;;50.28;23.52;;;;;;;;;;5022229;28;20053;-83
2021/08/29 14:25:15;;;;;;;47.75;20.88;;;;;;;;;;5022751;28;20084;-83
2021/08/29 14:27:50;;;;;;;41.72;21.83;;;;;;;;;;5021847;28;20076;-80
2021/08/29 14:30:20;;;;;;;45.65;21.30;;;;;;;;;;5044688;28;20049;-82
2021/08/29 14:32:50;;;;;;;41.08;20.38;;;;;;;;;;5022116;28;20570;-82
2021/08/29 14:35:24;;;;;;;46.92;21.27;;;;;;;;;;5021325;28;20071;-83
2021/08/29 14:37:54;;;;;;;37.70;19.88;;;;;;;;;;5022344;28;20049;-82
2021/08/29 14:40:24;;;;;;;40.83;19.10;;;;;;;;;;5038657;28;20041;-82
2021/08/29 14:42:52;;;;;;;35.75;18.45;;;;;;;;;;5037798;28;20056;-82
2021/08/29 14:45:21;;;;;;;36.72;19.25;;;;;;;;;;5037334;28;20073;-82